sensor_id;sensor_type;location;lat;lon;timestamp;temperature;humidity
59973;DHT22;55298;-36.624;-64.282;2024-03-02T00:01:42;28.80;88.60
59973;DHT22;55298;-36.624;-64.282;2024-03-02T00:04:10;28.70;89.40
59973;DHT22;55298;-36.624;-64.282;2024-03-02T00:06:39;28.60;90.10
59973;DHT22;55298;-36.624;-64.282;2024-03-02T00:09:10;28.60;90.20
59973;DHT22;55298;-36.624;-64.282;2024-03-02T00:11:39;28.60;90.20
59973;DHT22;55298;-36.624;-64.282;2024-03-02T00:14:12;28.50;90.30
59973;DHT22;55298;-36.624;-64.282;2024-03-02T00:16:40;28.50;90.90
59973;DHT22;55298;-36.624;-64.282;2024-03-02T00:19:09;28.40;91.10
59973;DHT22;55298;-36.624;-64.282;2024-03-02T00:21:37;28.30;91.50
59973;DHT22;55298;-36.624;-64.282;2024-03-02T00:24:34;28.30;91.60
59973;DHT22;55298;-36.624;-64.282;2024-03-02T00:27:04;28.20;92.20
59973;DHT22;55298;-36.624;-64.282;2024-03-02T00:29:34;28.20;92.40
59973;DHT22;55298;-36.624;-64.282;2024-03-02T00:32:02;28.20;92.50
59973;DHT22;55298;-36.624;-64.282;2024-03-02T00:34:32;28.10;93.30
59973;DHT22;55298;-36.624;-64.282;2024-03-02T00:37:00;28.10;92.80
59973;DHT22;55298;-36.624;-64.282;2024-03-02T00:39:28;28.10;93.10
59973;DHT22;55298;-36.624;-64.282;2024-03-02T00:41:56;28.10;93.50
59973;DHT22;55298;-36.624;-64.282;2024-03-02T00:44:26;28.00;93.60
59973;DHT22;55298;-36.624;-64.282;2024-03-02T00:46:56;28.00;93.60
59973;DHT22;55298;-36.624;-64.282;2024-03-02T00:49:25;27.90;94.00
59973;DHT22;55298;-36.624;-64.282;2024-03-02T00:51:56;28.00;94.20
59973;DHT22;55298;-36.624;-64.282;2024-03-02T00:54:28;28.00;94.30
59973;DHT22;55298;-36.624;-64.282;2024-03-02T00:56:58;28.90;95.00
59973;DHT22;55298;-36.624;-64.282;2024-03-02T00:59:26;27.90;94.60
59973;DHT22;55298;-36.624;-64.282;2024-03-02T01:01:57;27.90;94.70
59973;DHT22;55298;-36.624;-64.282;2024-03-02T01:04:25;27.90;94.80
59973;DHT22;55298;-36.624;-64.282;2024-03-02T01:06:58;27.90;95.00
59973;DHT22;55298;-36.624;-64.282;2024-03-02T01:09:27;27.90;95.60
59973;DHT22;55298;-36.624;-64.282;2024-03-02T01:12:04;27.90;95.70
59973;DHT22;55298;-36.624;-64.282;2024-03-02T01:14:36;27.90;95.70
59973;DHT22;55298;-36.624;-64.282;2024-03-02T01:17:05;27.90;95.90
59973;DHT22;55298;-36.624;-64.282;2024-03-02T01:19:35;27.80;95.80
59973;DHT22;55298;-36.624;-64.282;2024-03-02T01:22:03;27.80;96.40
59973;DHT22;55298;-36.624;-64.282;2024-03-02T01:24:31;27.80;96.40
59973;DHT22;55298;-36.624;-64.282;2024-03-02T01:27:01;27.80;96.70
59973;DHT22;55298;-36.624;-64.282;2024-03-02T01:29:31;27.70;96.80
59973;DHT22;55298;-36.624;-64.282;2024-03-02T01:32:02;27.70;97.20
59973;DHT22;55298;-36.624;-64.282;2024-03-02T01:34:34;27.70;97.10
59973;DHT22;55298;-36.624;-64.282;2024-03-02T01:37:02;27.70;97.30
59973;DHT22;55298;-36.624;-64.282;2024-03-02T01:39:34;27.70;97.80
59973;DHT22;55298;-36.624;-64.282;2024-03-02T01:42:02;27.70;97.80
59973;DHT22;55298;-36.624;-64.282;2024-03-02T01:44:31;27.60;97.90
59973;DHT22;55298;-36.624;-64.282;2024-03-02T01:46:59;27.70;98.00
59973;DHT22;55298;-36.624;-64.282;2024-03-02T01:49:27;27.80;98.40
59973;DHT22;55298;-36.624;-64.282;2024-03-02T01:51:55;28.80;98.90
59973;DHT22;55298;-36.624;-64.282;2024-03-02T01:54:24;27.60;98.50
59973;DHT22;55298;-36.624;-64.282;2024-03-02T01:56:52;27.60;98.80
59973;DHT22;55298;-36.624;-64.282;2024-03-02T01:59:19;27.50;99.00
59973;DHT22;55298;-36.624;-64.282;2024-03-02T02:01:47;27.50;99.30
59973;DHT22;55298;-36.624;-64.282;2024-03-02T02:04:15;27.50;99.40
59973;DHT22;55298;-36.624;-64.282;2024-03-02T02:06:44;27.50;99.40
59973;DHT22;55298;-36.624;-64.282;2024-03-02T02:09:12;27.50;99.50
59973;DHT22;55298;-36.624;-64.282;2024-03-02T02:11:40;27.40;99.50
59973;DHT22;55298;-36.624;-64.282;2024-03-02T02:14:12;27.40;99.80
59973;DHT22;55298;-36.624;-64.282;2024-03-02T02:16:40;27.40;99.90
59973;DHT22;55298;-36.624;-64.282;2024-03-02T02:19:08;27.40;99.90
59973;DHT22;55298;-36.624;-64.282;2024-03-02T02:21:37;27.30;99.90
59973;DHT22;55298;-36.624;-64.282;2024-03-02T02:24:05;26.50;99.90
59973;DHT22;55298;-36.624;-64.282;2024-03-02T02:26:33;27.30;99.90
59973;DHT22;55298;-36.624;-64.282;2024-03-02T02:29:10;27.30;99.90
59973;DHT22;55298;-36.624;-64.282;2024-03-02T02:31:40;27.20;99.90
59973;DHT22;55298;-36.624;-64.282;2024-03-02T02:34:08;27.30;99.90
59973;DHT22;55298;-36.624;-64.282;2024-03-02T02:36:47;27.20;99.90
59973;DHT22;55298;-36.624;-64.282;2024-03-02T02:39:21;27.20;99.90
59973;DHT22;55298;-36.624;-64.282;2024-03-02T02:41:51;27.10;99.90
59973;DHT22;55298;-36.624;-64.282;2024-03-02T02:44:40;27.10;99.90
59973;DHT22;55298;-36.624;-64.282;2024-03-02T02:47:36;27.10;99.90
59973;DHT22;55298;-36.624;-64.282;2024-03-02T02:50:07;27.10;99.90
59973;DHT22;55298;-36.624;-64.282;2024-03-02T02:52:37;27.00;99.90
59973;DHT22;55298;-36.624;-64.282;2024-03-02T02:55:07;27.00;99.90
59973;DHT22;55298;-36.624;-64.282;2024-03-02T02:57:39;27.00;99.90
59973;DHT22;55298;-36.624;-64.282;2024-03-02T03:00:10;27.00;99.90
59973;DHT22;55298;-36.624;-64.282;2024-03-02T03:02:50;27.00;99.90
59973;DHT22;55298;-36.624;-64.282;2024-03-02T03:05:22;27.00;99.90
59973;DHT22;55298;-36.624;-64.282;2024-03-02T03:07:49;27.00;99.90
59973;DHT22;55298;-36.624;-64.282;2024-03-02T03:10:18;27.00;99.90
59973;DHT22;55298;-36.624;-64.282;2024-03-02T03:12:53;26.90;99.90
59973;DHT22;55298;-36.624;-64.282;2024-03-02T03:15:23;26.90;99.90
59973;DHT22;55298;-36.624;-64.282;2024-03-02T03:17:52;26.90;99.90
59973;DHT22;55298;-36.624;-64.282;2024-03-02T03:20:21;26.90;99.90
59973;DHT22;55298;-36.624;-64.282;2024-03-02T03:22:52;26.90;99.90
59973;DHT22;55298;-36.624;-64.282;2024-03-02T03:25:23;26.90;99.90
59973;DHT22;55298;-36.624;-64.282;2024-03-02T03:27:51;26.90;99.90
59973;DHT22;55298;-36.624;-64.282;2024-03-02T03:30:24;26.90;99.90
59973;DHT22;55298;-36.624;-64.282;2024-03-02T03:33:06;26.80;99.90
59973;DHT22;55298;-36.624;-64.282;2024-03-02T03:35:36;26.90;99.90
59973;DHT22;55298;-36.624;-64.282;2024-03-02T03:38:07;26.90;99.90
59973;DHT22;55298;-36.624;-64.282;2024-03-02T03:40:39;26.90;99.90
59973;DHT22;55298;-36.624;-64.282;2024-03-02T03:43:07;26.90;99.90
59973;DHT22;55298;-36.624;-64.282;2024-03-02T03:45:57;26.80;99.90
59973;DHT22;55298;-36.624;-64.282;2024-03-02T03:48:26;26.90;99.90
59973;DHT22;55298;-36.624;-64.282;2024-03-02T03:51:03;26.90;99.90
59973;DHT22;55298;-36.624;-64.282;2024-03-02T03:53:33;26.90;99.90
59973;DHT22;55298;-36.624;-64.282;2024-03-02T03:56:01;26.90;99.90
59973;DHT22;55298;-36.624;-64.282;2024-03-02T03:58:28;26.90;99.90
59973;DHT22;55298;-36.624;-64.282;2024-03-02T04:00:57;26.80;99.90
59973;DHT22;55298;-36.624;-64.282;2024-03-02T04:03:45;26.90;99.90
59973;DHT22;55298;-36.624;-64.282;2024-03-02T04:06:13;26.80;99.90
59973;DHT22;55298;-36.624;-64.282;2024-03-02T04:08:43;27.30;99.90
59973;DHT22;55298;-36.624;-64.282;2024-03-02T04:11:10;26.90;99.90
59973;DHT22;55298;-36.624;-64.282;2024-03-02T04:13:38;26.80;99.90
59973;DHT22;55298;-36.624;-64.282;2024-03-02T04:16:06;26.90;99.90
59973;DHT22;55298;-36.624;-64.282;2024-03-02T04:18:33;26.80;99.90
59973;DHT22;55298;-36.624;-64.282;2024-03-02T04:21:01;26.90;99.90
59973;DHT22;55298;-36.624;-64.282;2024-03-02T04:23:29;26.80;99.90
59973;DHT22;55298;-36.624;-64.282;2024-03-02T04:25:57;26.80;99.90
59973;DHT22;55298;-36.624;-64.282;2024-03-02T04:28:24;26.80;99.90
59973;DHT22;55298;-36.624;-64.282;2024-03-02T04:30:52;26.90;99.90
59973;DHT22;55298;-36.624;-64.282;2024-03-02T04:33:20;26.80;99.90
59973;DHT22;55298;-36.624;-64.282;2024-03-02T04:35:48;26.70;99.90
59973;DHT22;55298;-36.624;-64.282;2024-03-02T04:38:15;26.80;99.90
59973;DHT22;55298;-36.624;-64.282;2024-03-02T04:40:43;26.80;99.90
59973;DHT22;55298;-36.624;-64.282;2024-03-02T04:43:11;26.80;99.90
59973;DHT22;55298;-36.624;-64.282;2024-03-02T04:45:42;26.80;99.90
59973;DHT22;55298;-36.624;-64.282;2024-03-02T04:48:10;26.80;99.90
59973;DHT22;55298;-36.624;-64.282;2024-03-02T04:50:38;26.80;99.90
59973;DHT22;55298;-36.624;-64.282;2024-03-02T04:53:05;26.80;99.90
59973;DHT22;55298;-36.624;-64.282;2024-03-02T04:55:33;26.80;99.90
59973;DHT22;55298;-36.624;-64.282;2024-03-02T04:58:20;26.80;99.90
59973;DHT22;55298;-36.624;-64.282;2024-03-02T05:00:47;26.70;99.90
59973;DHT22;55298;-36.624;-64.282;2024-03-02T05:03:15;26.60;99.90
59973;DHT22;55298;-36.624;-64.282;2024-03-02T05:05:42;26.80;99.90
59973;DHT22;55298;-36.624;-64.282;2024-03-02T05:08:11;26.70;99.90
59973;DHT22;55298;-36.624;-64.282;2024-03-02T05:10:40;26.70;99.90
59973;DHT22;55298;-36.624;-64.282;2024-03-02T05:13:08;26.70;99.90
59973;DHT22;55298;-36.624;-64.282;2024-03-02T05:15:36;26.60;99.90
59973;DHT22;55298;-36.624;-64.282;2024-03-02T05:18:04;26.70;99.90
59973;DHT22;55298;-36.624;-64.282;2024-03-02T05:20:32;26.60;99.90
59973;DHT22;55298;-36.624;-64.282;2024-03-02T05:22:59;26.60;99.90
59973;DHT22;55298;-36.624;-64.282;2024-03-02T05:27:54;26.50;99.90
59973;DHT22;55298;-36.624;-64.282;2024-03-02T05:30:23;26.60;99.90
59973;DHT22;55298;-36.624;-64.282;2024-03-02T05:32:52;26.50;99.90
59973;DHT22;55298;-36.624;-64.282;2024-03-02T05:35:20;26.50;99.90
59973;DHT22;55298;-36.624;-64.282;2024-03-02T05:37:48;26.50;99.90
59973;DHT22;55298;-36.624;-64.282;2024-03-02T05:40:15;26.50;99.90
59973;DHT22;55298;-36.624;-64.282;2024-03-02T05:42:45;26.40;99.90
59973;DHT22;55298;-36.624;-64.282;2024-03-02T05:45:15;26.50;99.90
59973;DHT22;55298;-36.624;-64.282;2024-03-02T05:47:44;26.50;99.90
59973;DHT22;55298;-36.624;-64.282;2024-03-02T05:50:13;26.50;99.90
59973;DHT22;55298;-36.624;-64.282;2024-03-02T05:52:42;26.40;99.90
59973;DHT22;55298;-36.624;-64.282;2024-03-02T05:55:12;26.30;99.90
59973;DHT22;55298;-36.624;-64.282;2024-03-02T05:57:41;26.20;99.90
59973;DHT22;55298;-36.624;-64.282;2024-03-02T06:00:22;26.30;99.90
59973;DHT22;55298;-36.624;-64.282;2024-03-02T06:02:50;26.30;99.90
59973;DHT22;55298;-36.624;-64.282;2024-03-02T06:05:22;26.30;99.90
59973;DHT22;55298;-36.624;-64.282;2024-03-02T06:07:54;26.20;99.90
59973;DHT22;55298;-36.624;-64.282;2024-03-02T06:10:23;26.20;99.90
59973;DHT22;55298;-36.624;-64.282;2024-03-02T06:12:52;26.20;99.90
59973;DHT22;55298;-36.624;-64.282;2024-03-02T06:15:20;26.20;99.90
59973;DHT22;55298;-36.624;-64.282;2024-03-02T06:17:48;26.00;99.90
59973;DHT22;55298;-36.624;-64.282;2024-03-02T06:20:16;25.90;98.60
59973;DHT22;55298;-36.624;-64.282;2024-03-02T06:22:44;25.60;98.00
59973;DHT22;55298;-36.624;-64.282;2024-03-02T06:25:11;25.60;97.50
59973;DHT22;55298;-36.624;-64.282;2024-03-02T06:27:40;25.30;96.70
59973;DHT22;55298;-36.624;-64.282;2024-03-02T06:30:07;25.00;96.80
59973;DHT22;55298;-36.624;-64.282;2024-03-02T06:32:35;25.00;97.80
59973;DHT22;55298;-36.624;-64.282;2024-03-02T06:35:04;24.40;98.70
59973;DHT22;55298;-36.624;-64.282;2024-03-02T06:37:34;25.40;99.90
59973;DHT22;55298;-36.624;-64.282;2024-03-02T06:40:01;24.00;99.90
59973;DHT22;55298;-36.624;-64.282;2024-03-02T06:42:29;23.80;99.90
59973;DHT22;55298;-36.624;-64.282;2024-03-02T06:45:00;23.70;99.90
59973;DHT22;55298;-36.624;-64.282;2024-03-02T06:47:28;23.50;99.90
59973;DHT22;55298;-36.624;-64.282;2024-03-02T06:49:56;23.40;99.90
59973;DHT22;55298;-36.624;-64.282;2024-03-02T06:52:25;23.20;99.90
59973;DHT22;55298;-36.624;-64.282;2024-03-02T06:54:53;22.90;99.90
59973;DHT22;55298;-36.624;-64.282;2024-03-02T06:57:21;22.70;99.90
59973;DHT22;55298;-36.624;-64.282;2024-03-02T06:59:49;22.50;99.90
59973;DHT22;55298;-36.624;-64.282;2024-03-02T07:02:18;22.50;99.90
59973;DHT22;55298;-36.624;-64.282;2024-03-02T07:04:45;22.50;99.90
59973;DHT22;55298;-36.624;-64.282;2024-03-02T07:07:13;22.40;99.90
59973;DHT22;55298;-36.624;-64.282;2024-03-02T07:09:41;22.30;99.90
59973;DHT22;55298;-36.624;-64.282;2024-03-02T07:12:09;22.20;99.90
59973;DHT22;55298;-36.624;-64.282;2024-03-02T07:14:37;22.10;99.90
59973;DHT22;55298;-36.624;-64.282;2024-03-02T07:17:24;22.00;99.90
59973;DHT22;55298;-36.624;-64.282;2024-03-02T07:22:20;22.00;99.90
59973;DHT22;55298;-36.624;-64.282;2024-03-02T07:24:48;22.10;99.90
59973;DHT22;55298;-36.624;-64.282;2024-03-02T07:27:17;22.20;99.90
59973;DHT22;55298;-36.624;-64.282;2024-03-02T07:29:44;22.20;99.90
59973;DHT22;55298;-36.624;-64.282;2024-03-02T07:32:12;22.30;99.90
59973;DHT22;55298;-36.624;-64.282;2024-03-02T07:34:43;22.40;99.90
59973;DHT22;55298;-36.624;-64.282;2024-03-02T07:37:11;22.40;99.90
59973;DHT22;55298;-36.624;-64.282;2024-03-02T07:39:39;22.40;99.90
59973;DHT22;55298;-36.624;-64.282;2024-03-02T07:42:07;22.20;99.90
59973;DHT22;55298;-36.624;-64.282;2024-03-02T07:44:35;21.70;99.90
59973;DHT22;55298;-36.624;-64.282;2024-03-02T07:47:13;22.40;99.90
59973;DHT22;55298;-36.624;-64.282;2024-03-02T07:49:41;22.40;99.90
59973;DHT22;55298;-36.624;-64.282;2024-03-02T07:52:08;22.60;99.90
59973;DHT22;55298;-36.624;-64.282;2024-03-02T07:54:42;22.60;99.90
59973;DHT22;55298;-36.624;-64.282;2024-03-02T07:57:12;22.60;99.90
59973;DHT22;55298;-36.624;-64.282;2024-03-02T07:59:40;22.50;99.90
59973;DHT22;55298;-36.624;-64.282;2024-03-02T08:02:08;22.50;99.90
59973;DHT22;55298;-36.624;-64.282;2024-03-02T08:04:35;22.50;99.90
59973;DHT22;55298;-36.624;-64.282;2024-03-02T08:07:04;22.40;99.90
59973;DHT22;55298;-36.624;-64.282;2024-03-02T08:09:32;22.70;99.90
59973;DHT22;55298;-36.624;-64.282;2024-03-02T08:12:00;22.30;99.90
59973;DHT22;55298;-36.624;-64.282;2024-03-02T08:14:29;22.20;99.90
59973;DHT22;55298;-36.624;-64.282;2024-03-02T08:16:58;22.20;99.90
59973;DHT22;55298;-36.624;-64.282;2024-03-02T08:19:28;22.10;99.90
59973;DHT22;55298;-36.624;-64.282;2024-03-02T08:21:56;22.20;99.90
59973;DHT22;55298;-36.624;-64.282;2024-03-02T08:24:26;22.00;99.90
59973;DHT22;55298;-36.624;-64.282;2024-03-02T08:26:55;22.00;99.90
59973;DHT22;55298;-36.624;-64.282;2024-03-02T08:29:22;22.00;99.90
59973;DHT22;55298;-36.624;-64.282;2024-03-02T08:31:50;21.90;99.90
59973;DHT22;55298;-36.624;-64.282;2024-03-02T08:34:19;21.90;99.90
59973;DHT22;55298;-36.624;-64.282;2024-03-02T08:36:47;21.80;99.90
59973;DHT22;55298;-36.624;-64.282;2024-03-02T08:39:15;21.80;99.90
59973;DHT22;55298;-36.624;-64.282;2024-03-02T08:41:45;21.90;99.90
59973;DHT22;55298;-36.624;-64.282;2024-03-02T08:44:14;21.80;99.90
59973;DHT22;55298;-36.624;-64.282;2024-03-02T08:46:42;21.70;99.90
59973;DHT22;55298;-36.624;-64.282;2024-03-02T08:49:10;21.70;99.90
59973;DHT22;55298;-36.624;-64.282;2024-03-02T08:51:37;21.80;99.90
59973;DHT22;55298;-36.624;-64.282;2024-03-02T08:54:05;21.70;99.90
59973;DHT22;55298;-36.624;-64.282;2024-03-02T08:56:33;21.70;99.90
59973;DHT22;55298;-36.624;-64.282;2024-03-02T08:59:00;21.70;99.90
59973;DHT22;55298;-36.624;-64.282;2024-03-02T09:01:28;21.50;99.90
59973;DHT22;55298;-36.624;-64.282;2024-03-02T09:03:56;21.60;99.90
59973;DHT22;55298;-36.624;-64.282;2024-03-02T09:06:23;21.60;99.90
59973;DHT22;55298;-36.624;-64.282;2024-03-02T09:08:51;21.60;99.90
59973;DHT22;55298;-36.624;-64.282;2024-03-02T09:11:19;21.50;99.90
59973;DHT22;55298;-36.624;-64.282;2024-03-02T09:13:47;21.50;99.90
59973;DHT22;55298;-36.624;-64.282;2024-03-02T09:16:17;21.40;99.90
59973;DHT22;55298;-36.624;-64.282;2024-03-02T09:18:44;21.40;99.90
59973;DHT22;55298;-36.624;-64.282;2024-03-02T09:21:12;21.40;99.90
59973;DHT22;55298;-36.624;-64.282;2024-03-02T09:23:43;21.40;99.90
59973;DHT22;55298;-36.624;-64.282;2024-03-02T09:26:12;21.30;99.90
59973;DHT22;55298;-36.624;-64.282;2024-03-02T09:28:46;21.30;99.10
59973;DHT22;55298;-36.624;-64.282;2024-03-02T09:31:14;21.30;99.00
59973;DHT22;55298;-36.624;-64.282;2024-03-02T09:33:43;21.20;97.40
59973;DHT22;55298;-36.624;-64.282;2024-03-02T09:36:21;21.10;95.60
59973;DHT22;55298;-36.624;-64.282;2024-03-02T09:38:49;21.10;94.30
59973;DHT22;55298;-36.624;-64.282;2024-03-02T09:41:17;21.00;92.90
59973;DHT22;55298;-36.624;-64.282;2024-03-02T09:43:45;20.90;92.60
59973;DHT22;55298;-36.624;-64.282;2024-03-02T09:46:16;20.80;90.70
59973;DHT22;55298;-36.624;-64.282;2024-03-02T09:48:46;20.80;87.70
59973;DHT22;55298;-36.624;-64.282;2024-03-02T09:51:15;20.80;87.00
59973;DHT22;55298;-36.624;-64.282;2024-03-02T09:53:47;20.60;85.20
59973;DHT22;55298;-36.624;-64.282;2024-03-02T09:56:16;20.60;81.20
59973;DHT22;55298;-36.624;-64.282;2024-03-02T09:58:45;20.90;81.60
59973;DHT22;55298;-36.624;-64.282;2024-03-02T10:01:17;20.40;80.30
59973;DHT22;55298;-36.624;-64.282;2024-03-02T10:03:47;20.40;79.70
59973;DHT22;55298;-36.624;-64.282;2024-03-02T10:06:26;20.40;80.60
59973;DHT22;55298;-36.624;-64.282;2024-03-02T10:08:55;20.30;79.30
59973;DHT22;55298;-36.624;-64.282;2024-03-02T10:11:32;20.30;77.50
59973;DHT22;55298;-36.624;-64.282;2024-03-02T10:14:09;20.20;78.10
59973;DHT22;55298;-36.624;-64.282;2024-03-02T10:16:39;20.10;76.20
59973;DHT22;55298;-36.624;-64.282;2024-03-02T10:19:27;20.10;74.90
59973;DHT22;55298;-36.624;-64.282;2024-03-02T10:22:00;20.00;74.50
59973;DHT22;55298;-36.624;-64.282;2024-03-02T10:24:37;19.90;74.30
59973;DHT22;55298;-36.624;-64.282;2024-03-02T10:27:11;19.90;72.30
59973;DHT22;55298;-36.624;-64.282;2024-03-02T10:29:45;19.70;71.70
59973;DHT22;55298;-36.624;-64.282;2024-03-02T10:32:13;19.80;73.90
59973;DHT22;55298;-36.624;-64.282;2024-03-02T10:34:42;19.70;71.40
59973;DHT22;55298;-36.624;-64.282;2024-03-02T10:37:11;20.20;73.00
59973;DHT22;55298;-36.624;-64.282;2024-03-02T10:39:40;19.70;71.50
59973;DHT22;55298;-36.624;-64.282;2024-03-02T10:42:08;19.60;70.20
59973;DHT22;55298;-36.624;-64.282;2024-03-02T10:44:36;19.60;70.00
59973;DHT22;55298;-36.624;-64.282;2024-03-02T10:47:05;19.50;70.20
59973;DHT22;55298;-36.624;-64.282;2024-03-02T10:49:33;19.50;69.10
59973;DHT22;55298;-36.624;-64.282;2024-03-02T10:52:01;19.70;68.00
59973;DHT22;55298;-36.624;-64.282;2024-03-02T10:54:29;19.50;67.40
59973;DHT22;55298;-36.624;-64.282;2024-03-02T10:57:04;19.50;67.20
59973;DHT22;55298;-36.624;-64.282;2024-03-02T10:59:36;19.60;66.70
59973;DHT22;55298;-36.624;-64.282;2024-03-02T11:02:07;20.10;66.70
59973;DHT22;55298;-36.624;-64.282;2024-03-02T11:04:39;20.90;64.10
59973;DHT22;55298;-36.624;-64.282;2024-03-02T11:07:09;21.90;58.50
59973;DHT22;55298;-36.624;-64.282;2024-03-02T11:09:44;22.80;55.60
59973;DHT22;55298;-36.624;-64.282;2024-03-02T11:12:33;23.50;53.40
59973;DHT22;55298;-36.624;-64.282;2024-03-02T11:15:09;24.10;51.30
59973;DHT22;55298;-36.624;-64.282;2024-03-02T11:17:38;24.70;50.20
59973;DHT22;55298;-36.624;-64.282;2024-03-02T11:20:08;25.10;47.00
59973;DHT22;55298;-36.624;-64.282;2024-03-02T11:22:37;25.60;45.60
59973;DHT22;55298;-36.624;-64.282;2024-03-02T11:25:06;24.70;44.00
59973;DHT22;55298;-36.624;-64.282;2024-03-02T11:28:09;26.00;44.50
59973;DHT22;55298;-36.624;-64.282;2024-03-02T11:30:52;26.10;42.30
59973;DHT22;55298;-36.624;-64.282;2024-03-02T11:33:24;26.70;41.80
59973;DHT22;55298;-36.624;-64.282;2024-03-02T11:35:58;26.70;40.40
59973;DHT22;55298;-36.624;-64.282;2024-03-02T11:38:28;27.00;39.10
59973;DHT22;55298;-36.624;-64.282;2024-03-02T11:41:03;27.50;38.90
59973;DHT22;55298;-36.624;-64.282;2024-03-02T11:43:38;27.60;38.20
59973;DHT22;55298;-36.624;-64.282;2024-03-02T11:46:06;27.70;39.30
59973;DHT22;55298;-36.624;-64.282;2024-03-02T11:48:36;27.90;38.20
59973;DHT22;55298;-36.624;-64.282;2024-03-02T11:51:04;28.10;36.90
59973;DHT22;55298;-36.624;-64.282;2024-03-02T11:53:34;28.00;36.70
59973;DHT22;55298;-36.624;-64.282;2024-03-02T11:56:06;28.00;36.50
59973;DHT22;55298;-36.624;-64.282;2024-03-02T11:58:37;28.20;37.40
59973;DHT22;55298;-36.624;-64.282;2024-03-02T12:01:07;28.70;37.00
59973;DHT22;55298;-36.624;-64.282;2024-03-02T12:03:35;28.90;36.70
59973;DHT22;55298;-36.624;-64.282;2024-03-02T12:06:05;28.90;34.90
59973;DHT22;55298;-36.624;-64.282;2024-03-02T12:08:33;29.20;35.00
59973;DHT22;55298;-36.624;-64.282;2024-03-02T12:11:04;29.30;34.50
59973;DHT22;55298;-36.624;-64.282;2024-03-02T12:13:33;29.40;34.10
59973;DHT22;55298;-36.624;-64.282;2024-03-02T12:16:01;29.40;33.30
59973;DHT22;55298;-36.624;-64.282;2024-03-02T12:18:29;29.50;33.60
59973;DHT22;55298;-36.624;-64.282;2024-03-02T12:20:57;29.90;35.00
59973;DHT22;55298;-36.624;-64.282;2024-03-02T12:23:35;29.90;31.60
59973;DHT22;55298;-36.624;-64.282;2024-03-02T12:26:06;30.40;32.00
59973;DHT22;55298;-36.624;-64.282;2024-03-02T12:28:40;30.90;31.90
59973;DHT22;55298;-36.624;-64.282;2024-03-02T12:31:13;31.30;31.10
59973;DHT22;55298;-36.624;-64.282;2024-03-02T12:33:52;31.10;29.90
59973;DHT22;55298;-36.624;-64.282;2024-03-02T12:36:28;30.70;30.20
59973;DHT22;55298;-36.624;-64.282;2024-03-02T12:39:03;30.50;29.70
59973;DHT22;55298;-36.624;-64.282;2024-03-02T12:41:40;30.70;30.50
59973;DHT22;55298;-36.624;-64.282;2024-03-02T12:44:14;31.00;29.30
59973;DHT22;55298;-36.624;-64.282;2024-03-02T12:46:51;30.90;28.10
59973;DHT22;55298;-36.624;-64.282;2024-03-02T12:49:23;30.50;28.50
59973;DHT22;55298;-36.624;-64.282;2024-03-02T12:51:51;30.50;28.60
59973;DHT22;55298;-36.624;-64.282;2024-03-02T12:54:23;30.80;29.10
59973;DHT22;55298;-36.624;-64.282;2024-03-02T12:56:51;30.90;28.40
59973;DHT22;55298;-36.624;-64.282;2024-03-02T12:59:23;30.90;28.30
59973;DHT22;55298;-36.624;-64.282;2024-03-02T13:01:54;31.30;28.70
59973;DHT22;55298;-36.624;-64.282;2024-03-02T13:04:26;31.20;27.80
59973;DHT22;55298;-36.624;-64.282;2024-03-02T13:06:56;30.80;27.40
59973;DHT22;55298;-36.624;-64.282;2024-03-02T13:09:25;30.80;27.90
59973;DHT22;55298;-36.624;-64.282;2024-03-02T13:11:55;30.40;27.90
59973;DHT22;55298;-36.624;-64.282;2024-03-02T13:14:23;30.30;28.10
59973;DHT22;55298;-36.624;-64.282;2024-03-02T13:16:53;30.40;28.30
59973;DHT22;55298;-36.624;-64.282;2024-03-02T13:19:21;30.50;28.20
59973;DHT22;55298;-36.624;-64.282;2024-03-02T13:21:50;30.50;28.50
59973;DHT22;55298;-36.624;-64.282;2024-03-02T13:24:20;30.50;28.40
59973;DHT22;55298;-36.624;-64.282;2024-03-02T13:26:48;30.50;28.30
59973;DHT22;55298;-36.624;-64.282;2024-03-02T13:29:18;30.70;27.90
59973;DHT22;55298;-36.624;-64.282;2024-03-02T13:31:46;30.90;28.00
59973;DHT22;55298;-36.624;-64.282;2024-03-02T13:34:25;31.30;28.10
59973;DHT22;55298;-36.624;-64.282;2024-03-02T13:36:52;31.60;28.00
59973;DHT22;55298;-36.624;-64.282;2024-03-02T13:39:21;31.70;27.20
59973;DHT22;55298;-36.624;-64.282;2024-03-02T13:41:50;31.90;28.00
59973;DHT22;55298;-36.624;-64.282;2024-03-02T13:44:20;32.20;27.50
59973;DHT22;55298;-36.624;-64.282;2024-03-02T13:46:51;32.30;27.10
59973;DHT22;55298;-36.624;-64.282;2024-03-02T13:49:22;32.10;27.10
59973;DHT22;55298;-36.624;-64.282;2024-03-02T13:51:54;31.80;27.30
59973;DHT22;55298;-36.624;-64.282;2024-03-02T13:54:22;31.80;27.60
59973;DHT22;55298;-36.624;-64.282;2024-03-02T13:56:50;32.10;27.30
59973;DHT22;55298;-36.624;-64.282;2024-03-02T13:59:22;32.30;26.80
59973;DHT22;55298;-36.624;-64.282;2024-03-02T14:01:52;32.50;26.90
59973;DHT22;55298;-36.624;-64.282;2024-03-02T14:04:20;33.00;27.00
59973;DHT22;55298;-36.624;-64.282;2024-03-02T14:06:48;33.20;26.60
59973;DHT22;55298;-36.624;-64.282;2024-03-02T14:09:16;33.30;26.10
59973;DHT22;55298;-36.624;-64.282;2024-03-02T14:11:43;33.20;26.40
59973;DHT22;55298;-36.624;-64.282;2024-03-02T14:14:11;33.70;26.30
59973;DHT22;55298;-36.624;-64.282;2024-03-02T14:16:40;33.70;26.20
59973;DHT22;55298;-36.624;-64.282;2024-03-02T14:19:08;33.70;26.40
59973;DHT22;55298;-36.624;-64.282;2024-03-02T14:21:37;33.40;25.60
59973;DHT22;55298;-36.624;-64.282;2024-03-02T14:24:05;33.30;25.90
59973;DHT22;55298;-36.624;-64.282;2024-03-02T14:26:35;33.30;25.70
59973;DHT22;55298;-36.624;-64.282;2024-03-02T14:29:05;33.20;25.70
59973;DHT22;55298;-36.624;-64.282;2024-03-02T14:31:33;32.90;25.10
59973;DHT22;55298;-36.624;-64.282;2024-03-02T14:34:01;32.80;25.60
59973;DHT22;55298;-36.624;-64.282;2024-03-02T14:36:30;32.60;25.80
59973;DHT22;55298;-36.624;-64.282;2024-03-02T14:38:58;32.90;25.70
59973;DHT22;55298;-36.624;-64.282;2024-03-02T14:41:26;32.90;25.80
59973;DHT22;55298;-36.624;-64.282;2024-03-02T14:43:53;32.90;25.50
59973;DHT22;55298;-36.624;-64.282;2024-03-02T14:46:21;33.20;25.80
59973;DHT22;55298;-36.624;-64.282;2024-03-02T14:48:49;33.60;25.20
59973;DHT22;55298;-36.624;-64.282;2024-03-02T14:51:17;34.20;25.10
59973;DHT22;55298;-36.624;-64.282;2024-03-02T14:53:46;34.40;23.90
59973;DHT22;55298;-36.624;-64.282;2024-03-02T14:56:14;34.30;23.50
59973;DHT22;55298;-36.624;-64.282;2024-03-02T14:58:42;34.30;25.10
59973;DHT22;55298;-36.624;-64.282;2024-03-02T15:01:10;34.60;24.20
59973;DHT22;55298;-36.624;-64.282;2024-03-02T15:03:38;34.70;23.80
59973;DHT22;55298;-36.624;-64.282;2024-03-02T15:06:06;34.80;23.30
59973;DHT22;55298;-36.624;-64.282;2024-03-02T15:08:34;34.50;24.00
59973;DHT22;55298;-36.624;-64.282;2024-03-02T15:11:03;34.60;23.70